sensor_id;sensor_type;location;lat;lon;timestamp;P1;durP1;ratioP1;P2;durP2;ratioP2
53775;SDS011;44276;49.534;6.378;2023-06-22T00:00:36;40.65;;;17.80;;
53775;SDS011;44276;49.534;6.378;2023-06-22T00:03:05;38.00;;;17.38;;
53775;SDS011;44276;49.534;6.378;2023-06-22T00:05:33;28.10;;;16.02;;
53775;SDS011;44276;49.534;6.378;2023-06-22T00:08:02;27.70;;;16.45;;
53775;SDS011;44276;49.534;6.378;2023-06-22T00:10:33;32.17;;;18.77;;
53775;SDS011;44276;49.534;6.378;2023-06-22T00:13:01;35.03;;;20.10;;
53775;SDS011;44276;49.534;6.378;2023-06-22T00:15:29;29.80;;;16.70;;
53775;SDS011;44276;49.534;6.378;2023-06-22T00:17:58;28.98;;;17.83;;
53775;SDS011;44276;49.534;6.378;2023-06-22T00:20:26;32.05;;;18.08;;
53775;SDS011;44276;49.534;6.378;2023-06-22T00:22:56;33.65;;;18.48;;
53775;SDS011;44276;49.534;6.378;2023-06-22T00:25:25;34.28;;;19.83;;
53775;SDS011;44276;49.534;6.378;2023-06-22T00:27:55;29.88;;;19.23;;
53775;SDS011;44276;49.534;6.378;2023-06-22T00:30:23;33.40;;;18.85;;
53775;SDS011;44276;49.534;6.378;2023-06-22T00:32:52;38.40;;;20.38;;
53775;SDS011;44276;49.534;6.378;2023-06-22T00:35:20;45.63;;;21.52;;
53775;SDS011;44276;49.534;6.378;2023-06-22T00:37:49;40.13;;;21.08;;
53775;SDS011;44276;49.534;6.378;2023-06-22T00:40:18;34.95;;;20.60;;
53775;SDS011;44276;49.534;6.378;2023-06-22T00:42:48;33.88;;;20.40;;
53775;SDS011;44276;49.534;6.378;2023-06-22T00:45:17;47.53;;;23.98;;
53775;SDS011;44276;49.534;6.378;2023-06-22T00:47:45;39.05;;;21.38;;
53775;SDS011;44276;49.534;6.378;2023-06-22T00:50:15;42.72;;;22.05;;
53775;SDS011;44276;49.534;6.378;2023-06-22T00:52:48;36.53;;;21.10;;
53775;SDS011;44276;49.534;6.378;2023-06-22T00:55:20;41.40;;;23.50;;
53775;SDS011;44276;49.534;6.378;2023-06-22T00:57:52;48.78;;;22.90;;
53775;SDS011;44276;49.534;6.378;2023-06-22T01:00:24;51.58;;;23.52;;
53775;SDS011;44276;49.534;6.378;2023-06-22T01:02:53;41.22;;;22.15;;
53775;SDS011;44276;49.534;6.378;2023-06-22T01:05:22;39.53;;;21.42;;
53775;SDS011;44276;49.534;6.378;2023-06-22T01:08:00;31.27;;;18.58;;
53775;SDS011;44276;49.534;6.378;2023-06-22T01:10:46;35.95;;;21.10;;
53775;SDS011;44276;49.534;6.378;2023-06-22T01:13:23;41.60;;;22.15;;
53775;SDS011;44276;49.534;6.378;2023-06-22T01:16:02;40.70;;;22.00;;
53775;SDS011;44276;49.534;6.378;2023-06-22T01:18:55;46.92;;;23.92;;
53775;SDS011;44276;49.534;6.378;2023-06-22T01:21:32;41.83;;;22.25;;
53775;SDS011;44276;49.534;6.378;2023-06-22T01:24:02;38.50;;;21.85;;
53775;SDS011;44276;49.534;6.378;2023-06-22T01:26:48;47.33;;;24.02;;
53775;SDS011;44276;49.534;6.378;2023-06-22T01:29:38;43.38;;;22.88;;
53775;SDS011;44276;49.534;6.378;2023-06-22T01:32:09;42.17;;;23.65;;
53775;SDS011;44276;49.534;6.378;2023-06-22T01:34:39;42.88;;;23.58;;
53775;SDS011;44276;49.534;6.378;2023-06-22T01:37:09;38.25;;;23.10;;
53775;SDS011;44276;49.534;6.378;2023-06-22T01:39:39;43.63;;;24.23;;
53775;SDS011;44276;49.534;6.378;2023-06-22T01:42:08;38.67;;;22.60;;
53775;SDS011;44276;49.534;6.378;2023-06-22T01:44:38;47.50;;;25.17;;
53775;SDS011;44276;49.534;6.378;2023-06-22T01:47:07;45.03;;;26.65;;
53775;SDS011;44276;49.534;6.378;2023-06-22T01:49:36;40.03;;;25.17;;
53775;SDS011;44276;49.534;6.378;2023-06-22T01:52:04;44.10;;;24.63;;
53775;SDS011;44276;49.534;6.378;2023-06-22T01:54:34;42.17;;;24.38;;
53775;SDS011;44276;49.534;6.378;2023-06-22T01:57:02;41.92;;;22.85;;
53775;SDS011;44276;49.534;6.378;2023-06-22T01:59:32;46.63;;;24.52;;
53775;SDS011;44276;49.534;6.378;2023-06-22T02:02:11;46.28;;;25.45;;
53775;SDS011;44276;49.534;6.378;2023-06-22T02:04:44;55.03;;;27.40;;
53775;SDS011;44276;49.534;6.378;2023-06-22T02:07:19;51.27;;;27.30;;
53775;SDS011;44276;49.534;6.378;2023-06-22T02:09:51;56.03;;;27.52;;
53775;SDS011;44276;49.534;6.378;2023-06-22T02:12:22;48.08;;;28.23;;
53775;SDS011;44276;49.534;6.378;2023-06-22T02:14:55;46.80;;;24.83;;
53775;SDS011;44276;49.534;6.378;2023-06-22T02:17:27;45.58;;;25.38;;
53775;SDS011;44276;49.534;6.378;2023-06-22T02:20:01;49.17;;;25.98;;
53775;SDS011;44276;49.534;6.378;2023-06-22T02:22:34;49.33;;;26.60;;
53775;SDS011;44276;49.534;6.378;2023-06-22T02:25:03;42.28;;;25.23;;
53775;SDS011;44276;49.534;6.378;2023-06-22T02:27:31;47.35;;;26.73;;
53775;SDS011;44276;49.534;6.378;2023-06-22T02:30:01;53.83;;;26.55;;
53775;SDS011;44276;49.534;6.378;2023-06-22T02:32:29;38.58;;;24.58;;
53775;SDS011;44276;49.534;6.378;2023-06-22T02:35:00;38.75;;;24.77;;
53775;SDS011;44276;49.534;6.378;2023-06-22T02:37:30;35.28;;;23.23;;
53775;SDS011;44276;49.534;6.378;2023-06-22T02:39:59;38.42;;;23.98;;
53775;SDS011;44276;49.534;6.378;2023-06-22T02:42:27;36.70;;;25.63;;
53775;SDS011;44276;49.534;6.378;2023-06-22T02:44:55;38.67;;;23.23;;
53775;SDS011;44276;49.534;6.378;2023-06-22T02:47:25;40.10;;;24.52;;
53775;SDS011;44276;49.534;6.378;2023-06-22T02:49:53;42.45;;;26.13;;
53775;SDS011;44276;49.534;6.378;2023-06-22T02:52:22;51.20;;;26.13;;
53775;SDS011;44276;49.534;6.378;2023-06-22T02:54:50;44.58;;;25.67;;
53775;SDS011;44276;49.534;6.378;2023-06-22T02:57:18;44.85;;;27.10;;
53775;SDS011;44276;49.534;6.378;2023-06-22T02:59:46;41.75;;;25.15;;
53775;SDS011;44276;49.534;6.378;2023-06-22T03:02:14;45.50;;;27.45;;
53775;SDS011;44276;49.534;6.378;2023-06-22T03:04:44;51.40;;;28.85;;
53775;SDS011;44276;49.534;6.378;2023-06-22T03:07:15;48.75;;;27.35;;
53775;SDS011;44276;49.534;6.378;2023-06-22T03:09:44;48.47;;;27.30;;
53775;SDS011;44276;49.534;6.378;2023-06-22T03:12:13;46.00;;;27.50;;
53775;SDS011;44276;49.534;6.378;2023-06-22T03:14:41;46.50;;;25.52;;
53775;SDS011;44276;49.534;6.378;2023-06-22T03:17:09;37.67;;;25.52;;
53775;SDS011;44276;49.534;6.378;2023-06-22T03:19:37;48.92;;;26.77;;
53775;SDS011;44276;49.534;6.378;2023-06-22T03:22:07;43.03;;;26.85;;
53775;SDS011;44276;49.534;6.378;2023-06-22T03:24:39;44.92;;;26.33;;
53775;SDS011;44276;49.534;6.378;2023-06-22T03:27:07;46.35;;;24.83;;
53775;SDS011;44276;49.534;6.378;2023-06-22T03:29:35;49.78;;;27.38;;
53775;SDS011;44276;49.534;6.378;2023-06-22T03:32:04;45.38;;;26.55;;
53775;SDS011;44276;49.534;6.378;2023-06-22T03:34:33;52.35;;;31.10;;
53775;SDS011;44276;49.534;6.378;2023-06-22T03:37:03;51.63;;;29.55;;
53775;SDS011;44276;49.534;6.378;2023-06-22T03:39:33;48.55;;;30.58;;
53775;SDS011;44276;49.534;6.378;2023-06-22T03:42:01;51.63;;;30.02;;
53775;SDS011;44276;49.534;6.378;2023-06-22T03:44:30;57.47;;;33.13;;
53775;SDS011;44276;49.534;6.378;2023-06-22T03:46:58;57.45;;;32.85;;
53775;SDS011;44276;49.534;6.378;2023-06-22T03:49:28;52.65;;;32.83;;
53775;SDS011;44276;49.534;6.378;2023-06-22T03:51:56;52.20;;;31.13;;
53775;SDS011;44276;49.534;6.378;2023-06-22T03:54:25;52.78;;;31.58;;
53775;SDS011;44276;49.534;6.378;2023-06-22T03:56:55;50.35;;;32.25;;
53775;SDS011;44276;49.534;6.378;2023-06-22T03:59:25;55.13;;;29.42;;
53775;SDS011;44276;49.534;6.378;2023-06-22T04:01:53;48.92;;;29.23;;
53775;SDS011;44276;49.534;6.378;2023-06-22T04:04:21;48.25;;;28.08;;
53775;SDS011;44276;49.534;6.378;2023-06-22T04:06:49;48.53;;;27.98;;
53775;SDS011;44276;49.534;6.378;2023-06-22T04:09:17;45.33;;;28.40;;
53775;SDS011;44276;49.534;6.378;2023-06-22T04:11:45;47.28;;;29.58;;
53775;SDS011;44276;49.534;6.378;2023-06-22T04:14:15;56.00;;;28.20;;
53775;SDS011;44276;49.534;6.378;2023-06-22T04:16:43;46.92;;;28.30;;
53775;SDS011;44276;49.534;6.378;2023-06-22T04:19:11;45.65;;;27.52;;
53775;SDS011;44276;49.534;6.378;2023-06-22T04:21:42;47.28;;;29.75;;
53775;SDS011;44276;49.534;6.378;2023-06-22T04:24:11;41.45;;;28.42;;
53775;SDS011;44276;49.534;6.378;2023-06-22T04:26:39;40.22;;;26.88;;
53775;SDS011;44276;49.534;6.378;2023-06-22T04:29:08;43.30;;;27.80;;
53775;SDS011;44276;49.534;6.378;2023-06-22T04:31:38;35.25;;;25.27;;
53775;SDS011;44276;49.534;6.378;2023-06-22T04:34:07;40.03;;;25.83;;
53775;SDS011;44276;49.534;6.378;2023-06-22T04:36:36;35.75;;;24.73;;
53775;SDS011;44276;49.534;6.378;2023-06-22T04:39:06;40.80;;;24.73;;
53775;SDS011;44276;49.534;6.378;2023-06-22T04:41:37;32.58;;;23.10;;
53775;SDS011;44276;49.534;6.378;2023-06-22T04:44:11;30.73;;;21.60;;
53775;SDS011;44276;49.534;6.378;2023-06-22T04:46:52;26.65;;;19.80;;
53775;SDS011;44276;49.534;6.378;2023-06-22T04:49:27;23.40;;;20.05;;
53775;SDS011;44276;49.534;6.378;2023-06-22T04:51:59;23.10;;;17.20;;
53775;SDS011;44276;49.534;6.378;2023-06-22T04:54:28;28.10;;;17.98;;
53775;SDS011;44276;49.534;6.378;2023-06-22T04:56:59;24.75;;;17.73;;
53775;SDS011;44276;49.534;6.378;2023-06-22T04:59:27;25.27;;;16.20;;
53775;SDS011;44276;49.534;6.378;2023-06-22T05:01:59;24.27;;;15.18;;
53775;SDS011;44276;49.534;6.378;2023-06-22T05:04:29;22.00;;;16.15;;
53775;SDS011;44276;49.534;6.378;2023-06-22T05:06:58;18.40;;;13.88;;
53775;SDS011;44276;49.534;6.378;2023-06-22T05:09:27;18.58;;;14.05;;
53775;SDS011;44276;49.534;6.378;2023-06-22T05:11:56;18.75;;;13.57;;
53775;SDS011;44276;49.534;6.378;2023-06-22T05:14:25;19.90;;;12.82;;
53775;SDS011;44276;49.534;6.378;2023-06-22T05:16:54;16.48;;;12.18;;
53775;SDS011;44276;49.534;6.378;2023-06-22T05:19:26;15.73;;;11.02;;
53775;SDS011;44276;49.534;6.378;2023-06-22T05:21:59;15.32;;;11.45;;
53775;SDS011;44276;49.534;6.378;2023-06-22T05:24:27;14.45;;;11.48;;
53775;SDS011;44276;49.534;6.378;2023-06-22T05:26:55;13.23;;;10.45;;
53775;SDS011;44276;49.534;6.378;2023-06-22T05:29:23;12.82;;;10.35;;
53775;SDS011;44276;49.534;6.378;2023-06-22T05:31:53;15.65;;;10.50;;
53775;SDS011;44276;49.534;6.378;2023-06-22T05:34:21;17.70;;;11.65;;
53775;SDS011;44276;49.534;6.378;2023-06-22T05:36:50;16.25;;;10.80;;
53775;SDS011;44276;49.534;6.378;2023-06-22T05:39:18;12.00;;;10.23;;
53775;SDS011;44276;49.534;6.378;2023-06-22T05:41:46;12.32;;;10.68;;
53775;SDS011;44276;49.534;6.378;2023-06-22T05:44:15;16.88;;;10.68;;
53775;SDS011;44276;49.534;6.378;2023-06-22T05:46:43;14.13;;;10.45;;
53775;SDS011;44276;49.534;6.378;2023-06-22T05:49:13;15.73;;;12.02;;
53775;SDS011;44276;49.534;6.378;2023-06-22T05:51:42;14.77;;;10.45;;
53775;SDS011;44276;49.534;6.378;2023-06-22T05:54:12;18.33;;;9.95;;
53775;SDS011;44276;49.534;6.378;2023-06-22T05:56:42;13.70;;;10.35;;
53775;SDS011;44276;49.534;6.378;2023-06-22T05:59:10;11.63;;;10.45;;
53775;SDS011;44276;49.534;6.378;2023-06-22T06:01:38;12.82;;;10.57;;
53775;SDS011;44276;49.534;6.378;2023-06-22T06:04:06;14.98;;;10.95;;
53775;SDS011;44276;49.534;6.378;2023-06-22T06:06:37;15.52;;;10.32;;
53775;SDS011;44276;49.534;6.378;2023-06-22T06:09:07;14.68;;;11.23;;
53775;SDS011;44276;49.534;6.378;2023-06-22T06:11:36;18.83;;;13.18;;
53775;SDS011;44276;49.534;6.378;2023-06-22T06:14:05;17.65;;;11.68;;
53775;SDS011;44276;49.534;6.378;2023-06-22T06:16:33;16.38;;;11.20;;
53775;SDS011;44276;49.534;6.378;2023-06-22T06:19:01;18.02;;;10.52;;
53775;SDS011;44276;49.534;6.378;2023-06-22T06:21:29;20.20;;;9.68;;
53775;SDS011;44276;49.534;6.378;2023-06-22T06:23:57;14.32;;;10.75;;
53775;SDS011;44276;49.534;6.378;2023-06-22T06:26:26;11.50;;;9.85;;
53775;SDS011;44276;49.534;6.378;2023-06-22T06:28:57;15.75;;;10.55;;
53775;SDS011;44276;49.534;6.378;2023-06-22T06:31:29;10.18;;;8.52;;
53775;SDS011;44276;49.534;6.378;2023-06-22T06:33:57;14.43;;;9.02;;
53775;SDS011;44276;49.534;6.378;2023-06-22T06:36:26;15.75;;;8.45;;
53775;SDS011;44276;49.534;6.378;2023-06-22T06:38:54;14.70;;;9.23;;
53775;SDS011;44276;49.534;6.378;2023-06-22T06:41:22;11.90;;;8.23;;
53775;SDS011;44276;49.534;6.378;2023-06-22T06:43:50;11.98;;;8.38;;
53775;SDS011;44276;49.534;6.378;2023-06-22T06:46:20;16.25;;;8.13;;
53775;SDS011;44276;49.534;6.378;2023-06-22T06:48:48;13.10;;;8.68;;
53775;SDS011;44276;49.534;6.378;2023-06-22T06:51:16;12.13;;;7.65;;
53775;SDS011;44276;49.534;6.378;2023-06-22T06:53:44;16.20;;;7.82;;
53775;SDS011;44276;49.534;6.378;2023-06-22T06:56:12;9.45;;;6.72;;
53775;SDS011;44276;49.534;6.378;2023-06-22T06:58:41;11.38;;;7.05;;
53775;SDS011;44276;49.534;6.378;2023-06-22T07:01:11;8.50;;;6.90;;
53775;SDS011;44276;49.534;6.378;2023-06-22T07:03:41;8.30;;;7.15;;
53775;SDS011;44276;49.534;6.378;2023-06-22T07:06:10;8.40;;;6.93;;
53775;SDS011;44276;49.534;6.378;2023-06-22T07:08:38;10.40;;;8.02;;
53775;SDS011;44276;49.534;6.378;2023-06-22T07:11:07;7.07;;;6.38;;
53775;SDS011;44276;49.534;6.378;2023-06-22T07:13:35;10.55;;;6.47;;
53775;SDS011;44276;49.534;6.378;2023-06-22T07:16:03;9.25;;;6.55;;
53775;SDS011;44276;49.534;6.378;2023-06-22T07:18:31;15.80;;;6.60;;
53775;SDS011;44276;49.534;6.378;2023-06-22T07:21:01;8.77;;;6.72;;
53775;SDS011;44276;49.534;6.378;2023-06-22T07:23:32;18.95;;;8.18;;
53775;SDS011;44276;49.534;6.378;2023-06-22T07:26:01;8.68;;;6.03;;
53775;SDS011;44276;49.534;6.378;2023-06-22T07:28:29;7.63;;;6.03;;
53775;SDS011;44276;49.534;6.378;2023-06-22T07:31:03;9.07;;;6.25;;
53775;SDS011;44276;49.534;6.378;2023-06-22T07:33:31;9.23;;;6.03;;
53775;SDS011;44276;49.534;6.378;2023-06-22T07:36:01;15.07;;;7.70;;
53775;SDS011;44276;49.534;6.378;2023-06-22T07:38:34;8.35;;;6.95;;
53775;SDS011;44276;49.534;6.378;2023-06-22T07:41:02;22.05;;;7.90;;
53775;SDS011;44276;49.534;6.378;2023-06-22T07:43:31;11.63;;;6.72;;
53775;SDS011;44276;49.534;6.378;2023-06-22T07:46:00;10.75;;;6.78;;
53775;SDS011;44276;49.534;6.378;2023-06-22T07:48:29;10.88;;;6.82;;
53775;SDS011;44276;49.534;6.378;2023-06-22T07:50:57;7.95;;;6.65;;
53775;SDS011;44276;49.534;6.378;2023-06-22T07:53:27;19.70;;;7.75;;
53775;SDS011;44276;49.534;6.378;2023-06-22T07:55:55;24.42;;;7.18;;
53775;SDS011;44276;49.534;6.378;2023-06-22T07:58:23;8.98;;;6.38;;
53775;SDS011;44276;49.534;6.378;2023-06-22T08:00:51;12.98;;;6.53;;
53775;SDS011;44276;49.534;6.378;2023-06-22T08:03:20;9.48;;;6.15;;
53775;SDS011;44276;49.534;6.378;2023-06-22T08:05:48;10.00;;;6.75;;
53775;SDS011;44276;49.534;6.378;2023-06-22T08:08:16;24.63;;;7.82;;
53775;SDS011;44276;49.534;6.378;2023-06-22T08:10:46;9.57;;;6.22;;
53775;SDS011;44276;49.534;6.378;2023-06-22T08:13:14;10.10;;;6.50;;
53775;SDS011;44276;49.534;6.378;2023-06-22T08:15:43;8.20;;;6.63;;
53775;SDS011;44276;49.534;6.378;2023-06-22T08:18:13;11.98;;;6.93;;
53775;SDS011;44276;49.534;6.378;2023-06-22T08:20:42;9.93;;;7.03;;
53775;SDS011;44276;49.534;6.378;2023-06-22T08:23:10;11.85;;;7.13;;
53775;SDS011;44276;49.534;6.378;2023-06-22T08:25:39;20.00;;;7.78;;
53775;SDS011;44276;49.534;6.378;2023-06-22T08:28:08;19.52;;;7.32;;
53775;SDS011;44276;49.534;6.378;2023-06-22T08:30:37;10.13;;;6.43;;
53775;SDS011;44276;49.534;6.378;2023-06-22T08:33:05;10.85;;;7.15;;
53775;SDS011;44276;49.534;6.378;2023-06-22T08:35:33;14.98;;;6.70;;
53775;SDS011;44276;49.534;6.378;2023-06-22T08:38:01;12.13;;;7.47;;
53775;SDS011;44276;49.534;6.378;2023-06-22T08:40:29;11.07;;;7.18;;
53775;SDS011;44276;49.534;6.378;2023-06-22T08:42:57;9.75;;;7.05;;
53775;SDS011;44276;49.534;6.378;2023-06-22T08:45:27;15.18;;;7.88;;
53775;SDS011;44276;49.534;6.378;2023-06-22T08:47:56;10.73;;;7.78;;
53775;SDS011;44276;49.534;6.378;2023-06-22T08:50:25;31.48;;;12.25;;
53775;SDS011;44276;49.534;6.378;2023-06-22T08:52:54;22.40;;;12.98;;
53775;SDS011;44276;49.534;6.378;2023-06-22T08:55:24;25.17;;;14.10;;
53775;SDS011;44276;49.534;6.378;2023-06-22T08:57:53;24.00;;;16.05;;
53775;SDS011;44276;49.534;6.378;2023-06-22T09:00:21;22.85;;;16.63;;
53775;SDS011;44276;49.534;6.378;2023-06-22T09:02:52;30.80;;;16.48;;
53775;SDS011;44276;49.534;6.378;2023-06-22T09:05:24;25.25;;;18.30;;
53775;SDS011;44276;49.534;6.378;2023-06-22T09:07:53;26.63;;;16.65;;
53775;SDS011;44276;49.534;6.378;2023-06-22T09:10:25;25.75;;;17.10;;
53775;SDS011;44276;49.534;6.378;2023-06-22T09:12:54;26.80;;;16.48;;
53775;SDS011;44276;49.534;6.378;2023-06-22T09:15:23;23.48;;;16.80;;
53775;SDS011;44276;49.534;6.378;2023-06-22T09:17:53;25.55;;;18.75;;
53775;SDS011;44276;49.534;6.378;2023-06-22T09:20:24;24.23;;;16.88;;
53775;SDS011;44276;49.534;6.378;2023-06-22T09:22:53;16.60;;;13.07;;
53775;SDS011;44276;49.534;6.378;2023-06-22T09:25:22;16.60;;;12.20;;
53775;SDS011;44276;49.534;6.378;2023-06-22T09:27:50;15.88;;;9.55;;
53775;SDS011;44276;49.534;6.378;2023-06-22T09:30:19;12.80;;;10.07;;
53775;SDS011;44276;49.534;6.378;2023-06-22T09:32:49;19.52;;;10.70;;
53775;SDS011;44276;49.534;6.378;2023-06-22T09:35:20;15.38;;;11.50;;
53775;SDS011;44276;49.534;6.378;2023-06-22T09:37:49;21.95;;;10.93;;
53775;SDS011;44276;49.534;6.378;2023-06-22T09:40:21;16.40;;;11.60;;
53775;SDS011;44276;49.534;6.378;2023-06-22T09:42:49;16.83;;;12.23;;
53775;SDS011;44276;49.534;6.378;2023-06-22T09:45:18;19.88;;;12.85;;
53775;SDS011;44276;49.534;6.378;2023-06-22T09:47:47;18.27;;;13.82;;
53775;SDS011;44276;49.534;6.378;2023-06-22T09:50:16;18.35;;;13.77;;
53775;SDS011;44276;49.534;6.378;2023-06-22T09:52:46;17.00;;;13.52;;
53775;SDS011;44276;49.534;6.378;2023-06-22T09:55:21;14.68;;;10.05;;
53775;SDS011;44276;49.534;6.378;2023-06-22T09:57:49;10.23;;;8.95;;
53775;SDS011;44276;49.534;6.378;2023-06-22T10:00:19;12.82;;;8.95;;
53775;SDS011;44276;49.534;6.378;2023-06-22T10:02:51;13.35;;;8.45;;
53775;SDS011;44276;49.534;6.378;2023-06-22T10:05:27;17.70;;;10.03;;
53775;SDS011;44276;49.534;6.378;2023-06-22T10:07:58;12.63;;;8.57;;
53775;SDS011;44276;49.534;6.378;2023-06-22T10:10:27;14.32;;;8.40;;
53775;SDS011;44276;49.534;6.378;2023-06-22T10:12:56;9.30;;;7.80;;
53775;SDS011;44276;49.534;6.378;2023-06-22T10:15:30;11.80;;;7.43;;
53775;SDS011;44276;49.534;6.378;2023-06-22T10:17:58;13.85;;;8.93;;
53775;SDS011;44276;49.534;6.378;2023-06-22T10:20:26;10.63;;;8.00;;
53775;SDS011;44276;49.534;6.378;2023-06-22T10:22:54;10.50;;;7.45;;
53775;SDS011;44276;49.534;6.378;2023-06-22T10:25:26;9.98;;;7.15;;
53775;SDS011;44276;49.534;6.378;2023-06-22T10:27:55;10.82;;;6.80;;
53775;SDS011;44276;49.534;6.378;2023-06-22T10:30:24;10.55;;;7.43;;
53775;SDS011;44276;49.534;6.378;2023-06-22T10:32:53;10.98;;;7.47;;
53775;SDS011;44276;49.534;6.378;2023-06-22T10:35:22;9.77;;;7.18;;
53775;SDS011;44276;49.534;6.378;2023-06-22T10:37:53;9.30;;;6.82;;
53775;SDS011;44276;49.534;6.378;2023-06-22T10:40:22;11.00;;;7.03;;
53775;SDS011;44276;49.534;6.378;2023-06-22T10:42:53;10.88;;;6.90;;
53775;SDS011;44276;49.534;6.378;2023-06-22T10:45:21;14.18;;;6.15;;
53775;SDS011;44276;49.534;6.378;2023-06-22T10:47:50;8.80;;;6.38;;
53775;SDS011;44276;49.534;6.378;2023-06-22T10:50:19;11.77;;;6.78;;
53775;SDS011;44276;49.534;6.378;2023-06-22T10:52:53;10.48;;;7.72;;
53775;SDS011;44276;49.534;6.378;2023-06-22T10:55:25;10.00;;;6.55;;
53775;SDS011;44276;49.534;6.378;2023-06-22T10:58:13;9.23;;;7.68;;
53775;SDS011;44276;49.534;6.378;2023-06-22T11:00:44;9.55;;;7.07;;
53775;SDS011;44276;49.534;6.378;2023-06-22T11:03:17;7.80;;;6.50;;
53775;SDS011;44276;49.534;6.378;2023-06-22T11:05:58;8.60;;;6.28;;
53775;SDS011;44276;49.534;6.378;2023-06-22T11:08:28;8.43;;;5.75;;
53775;SDS011;44276;49.534;6.378;2023-06-22T11:10:59;9.10;;;6.95;;
53775;SDS011;44276;49.534;6.378;2023-06-22T11:13:31;7.85;;;6.47;;
53775;SDS011;44276;49.534;6.378;2023-06-22T11:15:59;8.00;;;5.82;;
53775;SDS011;44276;49.534;6.378;2023-06-22T11:18:29;10.32;;;6.47;;
53775;SDS011;44276;49.534;6.378;2023-06-22T11:21:00;7.45;;;5.30;;
53775;SDS011;44276;49.534;6.378;2023-06-22T11:23:29;6.60;;;5.90;;
53775;SDS011;44276;49.534;6.378;2023-06-22T11:25:58;8.45;;;5.05;;
53775;SDS011;44276;49.534;6.378;2023-06-22T11:28:27;5.97;;;4.75;;
53775;SDS011;44276;49.534;6.378;2023-06-22T11:30:56;5.75;;;5.03;;
53775;SDS011;44276;49.534;6.378;2023-06-22T11:33:36;9.15;;;5.43;;
53775;SDS011;44276;49.534;6.378;2023-06-22T11:36:04;8.98;;;5.18;;
53775;SDS011;44276;49.534;6.378;2023-06-22T11:38:33;6.35;;;5.05;;
53775;SDS011;44276;49.534;6.378;2023-06-22T11:41:03;9.98;;;5.60;;
53775;SDS011;44276;49.534;6.378;2023-06-22T11:43:31;6.50;;;5.20;;
53775;SDS011;44276;49.534;6.378;2023-06-22T11:46:01;6.78;;;4.80;;
53775;SDS011;44276;49.534;6.378;2023-06-22T11:48:30;10.45;;;5.75;;
53775;SDS011;44276;49.534;6.378;2023-06-22T11:50:59;8.05;;;6.05;;
53775;SDS011;44276;49.534;6.378;2023-06-22T11:53:29;10.15;;;5.88;;
53775;SDS011;44276;49.534;6.378;2023-06-22T11:55:57;7.30;;;4.70;;
53775;SDS011;44276;49.534;6.378;2023-06-22T11:58:26;8.23;;;5.10;;
53775;SDS011;44276;49.534;6.378;2023-06-22T12:00:54;10.73;;;4.88;;
53775;SDS011;44276;49.534;6.378;2023-06-22T12:03:24;8.23;;;5.43;;
53775;SDS011;44276;49.534;6.378;2023-06-22T12:05:52;7.15;;;5.45;;
53775;SDS011;44276;49.534;6.378;2023-06-22T12:08:21;6.28;;;4.60;;
53775;SDS011;44276;49.534;6.378;2023-06-22T12:10:49;5.63;;;4.70;;
53775;SDS011;44276;49.534;6.378;2023-06-22T12:13:18;9.88;;;5.65;;
53775;SDS011;44276;49.534;6.378;2023-06-22T12:15:46;7.03;;;5.43;;
53775;SDS011;44276;49.534;6.378;2023-06-22T12:18:14;8.20;;;5.43;;
53775;SDS011;44276;49.534;6.378;2023-06-22T12:20:44;6.75;;;5.43;;
53775;SDS011;44276;49.534;6.378;2023-06-22T12:23:12;9.57;;;5.32;;
53775;SDS011;44276;49.534;6.378;2023-06-22T12:25:40;7.07;;;5.82;;
53775;SDS011;44276;49.534;6.378;2023-06-22T12:28:09;8.35;;;5.70;;
53775;SDS011;44276;49.534;6.378;2023-06-22T12:30:37;6.72;;;5.20;;
53775;SDS011;44276;49.534;6.378;2023-06-22T12:33:05;8.75;;;6.00;;
53775;SDS011;44276;49.534;6.378;2023-06-22T12:35:34;7.68;;;6.38;;
53775;SDS011;44276;49.534;6.378;2023-06-22T12:38:03;9.05;;;6.80;;
53775;SDS011;44276;49.534;6.378;2023-06-22T12:40:32;7.82;;;5.90;;
53775;SDS011;44276;49.534;6.378;2023-06-22T12:43:00;9.10;;;6.55;;
53775;SDS011;44276;49.534;6.378;2023-06-22T12:45:29;14.15;;;6.97;;
53775;SDS011;44276;49.534;6.378;2023-06-22T12:47:59;9.80;;;6.93;;
53775;SDS011;44276;49.534;6.378;2023-06-22T12:50:28;8.50;;;6.70;;
53775;SDS011;44276;49.534;6.378;2023-06-22T12:52:57;11.60;;;7.20;;
53775;SDS011;44276;49.534;6.378;2023-06-22T12:55:27;10.57;;;7.30;;
53775;SDS011;44276;49.534;6.378;2023-06-22T12:57:55;12.10;;;8.20;;
53775;SDS011;44276;49.534;6.378;2023-06-22T13:00:24;15.48;;;9.00;;
53775;SDS011;44276;49.534;6.378;2023-06-22T13:02:52;5.38;;;2.35;;
53775;SDS011;44276;49.534;6.378;2023-06-22T13:05:23;11.50;;;5.00;;
53775;SDS011;44276;49.534;6.378;2023-06-22T13:07:51;9.40;;;5.22;;
53775;SDS011;44276;49.534;6.378;2023-06-22T13:10:21;8.00;;;4.70;;
53775;SDS011;44276;49.534;6.378;2023-06-22T13:12:50;11.50;;;5.95;;
53775;SDS011;44276;49.534;6.378;2023-06-22T13:15:21;39.58;;;5.07;;
53775;SDS011;44276;49.534;6.378;2023-06-22T13:17:49;13.15;;;4.80;;
53775;SDS011;44276;49.534;6.378;2023-06-22T13:20:17;13.18;;;4.53;;
53775;SDS011;44276;49.534;6.378;2023-06-22T13:22:45;15.35;;;5.85;;
53775;SDS011;44276;49.534;6.378;2023-06-22T13:25:13;12.30;;;5.55;;
53775;SDS011;44276;49.534;6.378;2023-06-22T13:27:45;12.55;;;5.40;;
53775;SDS011;44276;49.534;6.378;2023-06-22T13:30:14;11.27;;;4.10;;
53775;SDS011;44276;49.534;6.378;2023-06-22T13:32:43;15.07;;;5.50;;
53775;SDS011;44276;49.534;6.378;2023-06-22T13:35:11;14.73;;;6.05;;
53775;SDS011;44276;49.534;6.378;2023-06-22T13:37:39;15.45;;;5.85;;
53775;SDS011;44276;49.534;6.378;2023-06-22T13:40:08;8.70;;;4.78;;
53775;SDS011;44276;49.534;6.378;2023-06-22T13:42:36;13.35;;;4.90;;
53775;SDS011;44276;49.534;6.378;2023-06-22T13:45:06;11.93;;;5.38;;
53775;SDS011;44276;49.534;6.378;2023-06-22T13:47:36;8.15;;;4.45;;
53775;SDS011;44276;49.534;6.378;2023-06-22T13:50:05;7.55;;;4.47;;
53775;SDS011;44276;49.534;6.378;2023-06-22T13:52:35;12.40;;;4.18;;
53775;SDS011;44276;49.534;6.378;2023-06-22T13:55:03;8.82;;;4.80;;
53775;SDS011;44276;49.534;6.378;2023-06-22T13:57:33;9.05;;;3.75;;
53775;SDS011;44276;49.534;6.378;2023-06-22T14:00:01;11.43;;;4.00;;
53775;SDS011;44276;49.534;6.378;2023-06-22T14:02:31;8.55;;;3.75;;
53775;SDS011;44276;49.534;6.378;2023-06-22T14:05:01;4.65;;;2.80;;
53775;SDS011;44276;49.534;6.378;2023-06-22T14:07:30;5.72;;;3.28;;
53775;SDS011;44276;49.534;6.378;2023-06-22T14:10:00;5.85;;;2.47;;
53775;SDS011;44276;49.534;6.378;2023-06-22T14:12:29;7.15;;;2.15;;
53775;SDS011;44276;49.534;6.378;2023-06-22T14:14:57;8.13;;;3.30;;
53775;SDS011;44276;49.534;6.378;2023-06-22T14:17:25;8.43;;;2.85;;
53775;SDS011;44276;49.534;6.378;2023-06-22T14:19:53;3.40;;;1.83;;
53775;SDS011;44276;49.534;6.378;2023-06-22T14:22:23;5.38;;;2.20;;
53775;SDS011;44276;49.534;6.378;2023-06-22T14:24:53;4.43;;;1.95;;
53775;SDS011;44276;49.534;6.378;2023-06-22T14:27:22;5.40;;;2.45;;
53775;SDS011;44276;49.534;6.378;2023-06-22T14:29:58;17.83;;;2.03;;
53775;SDS011;44276;49.534;6.378;2023-06-22T14:32:30;4.60;;;1.80;;
53775;SDS011;44276;49.534;6.378;2023-06-22T14:34:58;6.82;;;2.35;;
53775;SDS011;44276;49.534;6.378;2023-06-22T14:37:29;3.85;;;2.45;;
53775;SDS011;44276;49.534;6.378;2023-06-22T14:40:00;4.25;;;1.67;;
53775;SDS011;44276;49.534;6.378;2023-06-22T14:42:28;7.25;;;2.28;;
53775;SDS011;44276;49.534;6.378;2023-06-22T14:45:00;4.78;;;2.22;;